sensor_id;sensor_type;location;lat;lon;timestamp;pressure;altitude;pressure_sealevel;temperature;humidity
40794;BME280;26502;51.886;15.604;2023-01-30T00:02:07;100585.36;;;-0.60;76.18
40794;BME280;26502;51.886;15.604;2023-01-30T00:07:15;100585.02;;;-0.61;75.81
40794;BME280;26502;51.886;15.604;2023-01-30T00:12:22;100572.59;;;-0.62;75.56
40794;BME280;26502;51.886;15.604;2023-01-30T00:17:31;100566.33;;;-0.62;75.26
40794;BME280;26502;51.886;15.604;2023-01-30T00:22:39;100560.19;;;-0.64;75.35
40794;BME280;26502;51.886;15.604;2023-01-30T00:27:46;100542.58;;;-0.65;75.26
40794;BME280;26502;51.886;15.604;2023-01-30T00:32:56;100530.87;;;-0.66;75.44
40794;BME280;26502;51.886;15.604;2023-01-30T00:38:04;100514.65;;;-0.66;75.19
40794;BME280;26502;51.886;15.604;2023-01-30T00:43:13;100505.57;;;-0.68;75.15
40794;BME280;26502;51.886;15.604;2023-01-30T00:48:37;100496.99;;;-0.71;75.08
40794;BME280;26502;51.886;15.604;2023-01-30T00:53:44;100473.95;;;-0.72;74.92
40794;BME280;26502;51.886;15.604;2023-01-30T00:58:53;100472.88;;;-0.75;74.96
40794;BME280;26502;51.886;15.604;2023-01-30T01:04:00;100463.98;;;-0.76;74.84
40794;BME280;26502;51.886;15.604;2023-01-30T01:09:08;100451.60;;;-0.77;74.56
40794;BME280;26502;51.886;15.604;2023-01-30T01:14:15;100440.73;;;-0.79;74.53
40794;BME280;26502;51.886;15.604;2023-01-30T01:19:23;100437.09;;;-0.80;74.46
40794;BME280;26502;51.886;15.604;2023-01-30T01:24:30;100419.98;;;-0.81;74.20
40794;BME280;26502;51.886;15.604;2023-01-30T01:29:39;100404.80;;;-0.82;74.27
40794;BME280;26502;51.886;15.604;2023-01-30T01:34:46;100393.12;;;-0.82;74.39
40794;BME280;26502;51.886;15.604;2023-01-30T01:39:53;100390.52;;;-0.82;74.20
40794;BME280;26502;51.886;15.604;2023-01-30T01:45:23;100388.05;;;-0.83;74.06
40794;BME280;26502;51.886;15.604;2023-01-30T01:50:37;100373.23;;;-0.86;74.04
40794;BME280;26502;51.886;15.604;2023-01-30T01:55:47;100346.02;;;-0.87;74.25
40794;BME280;26502;51.886;15.604;2023-01-30T02:00:58;100323.70;;;-0.85;73.96
40794;BME280;26502;51.886;15.604;2023-01-30T02:06:07;100302.60;;;-0.87;74.16
40794;BME280;26502;51.886;15.604;2023-01-30T02:11:21;100277.14;;;-0.87;74.05
40794;BME280;26502;51.886;15.604;2023-01-30T02:16:30;100258.84;;;-0.89;74.18
40794;BME280;26502;51.886;15.604;2023-01-30T02:22:19;100233.19;;;-0.91;74.35
40794;BME280;26502;51.886;15.604;2023-01-30T02:33:21;100212.76;;;-0.95;74.65
40794;BME280;26502;51.886;15.604;2023-01-30T02:38:40;100194.64;;;-0.93;74.69
40794;BME280;26502;51.886;15.604;2023-01-30T02:43:59;100188.37;;;-0.91;74.81
40794;BME280;26502;51.886;15.604;2023-01-30T02:49:15;100196.05;;;-0.89;74.78
40794;BME280;26502;51.886;15.604;2023-01-30T02:54:27;100184.92;;;-0.85;74.69
40794;BME280;26502;51.886;15.604;2023-01-30T02:59:37;100192.28;;;-0.80;74.11
40794;BME280;26502;51.886;15.604;2023-01-30T03:05:07;100185.30;;;-0.82;73.94
40794;BME280;26502;51.886;15.604;2023-01-30T03:10:25;100170.30;;;-0.82;74.01
40794;BME280;26502;51.886;15.604;2023-01-30T03:15:41;100143.30;;;-0.79;73.77
40794;BME280;26502;51.886;15.604;2023-01-30T03:20:52;100111.56;;;-0.79;73.80
40794;BME280;26502;51.886;15.604;2023-01-30T03:26:00;100122.57;;;-0.76;73.65
40794;BME280;26502;51.886;15.604;2023-01-30T03:31:10;100099.04;;;-0.73;73.58
40794;BME280;26502;51.886;15.604;2023-01-30T03:36:18;100083.88;;;-0.70;73.61
40794;BME280;26502;51.886;15.604;2023-01-30T03:41:25;100061.56;;;-0.67;73.57
40794;BME280;26502;51.886;15.604;2023-01-30T03:46:33;100048.14;;;-0.65;73.58
40794;BME280;26502;51.886;15.604;2023-01-30T03:51:40;100030.71;;;-0.62;73.46
40794;BME280;26502;51.886;15.604;2023-01-30T03:56:50;100032.29;;;-0.58;73.56
40794;BME280;26502;51.886;15.604;2023-01-30T04:01:57;100024.80;;;-0.54;73.39
40794;BME280;26502;51.886;15.604;2023-01-30T04:07:04;100025.69;;;-0.49;73.32
40794;BME280;26502;51.886;15.604;2023-01-30T04:12:13;100015.75;;;-0.44;73.25
40794;BME280;26502;51.886;15.604;2023-01-30T04:17:27;100004.94;;;-0.39;73.15
40794;BME280;26502;51.886;15.604;2023-01-30T04:22:55;99995.35;;;-0.36;73.18
40794;BME280;26502;51.886;15.604;2023-01-30T04:28:04;99970.05;;;-0.32;72.96
40794;BME280;26502;51.886;15.604;2023-01-30T04:33:14;99965.69;;;-0.39;73.53
40794;BME280;26502;51.886;15.604;2023-01-30T04:38:23;99963.23;;;-0.43;74.14
40794;BME280;26502;51.886;15.604;2023-01-30T04:43:31;99965.50;;;-0.40;74.59
40794;BME280;26502;51.886;15.604;2023-01-30T04:48:58;99970.93;;;-0.34;75.05
40794;BME280;26502;51.886;15.604;2023-01-30T04:54:06;99950.16;;;-0.35;75.57
40794;BME280;26502;51.886;15.604;2023-01-30T04:59:15;99947.36;;;-0.40;76.13
40794;BME280;26502;51.886;15.604;2023-01-30T05:04:24;99947.70;;;-0.44;76.61
40794;BME280;26502;51.886;15.604;2023-01-30T05:09:32;99948.06;;;-0.48;77.19
40794;BME280;26502;51.886;15.604;2023-01-30T05:14:39;99925.20;;;-0.55;77.80
40794;BME280;26502;51.886;15.604;2023-01-30T05:19:47;99905.50;;;-0.59;77.89
40794;BME280;26502;51.886;15.604;2023-01-30T05:24:54;99889.80;;;-0.60;78.40
40794;BME280;26502;51.886;15.604;2023-01-30T05:30:03;99881.95;;;-0.65;79.15
40794;BME280;26502;51.886;15.604;2023-01-30T05:35:11;99882.83;;;-0.65;79.42
40794;BME280;26502;51.886;15.604;2023-01-30T05:40:19;99880.55;;;-0.63;79.77
40794;BME280;26502;51.886;15.604;2023-01-30T05:45:26;99873.59;;;-0.60;80.28
40794;BME280;26502;51.886;15.604;2023-01-30T05:50:33;99855.79;;;-0.56;80.72
40794;BME280;26502;51.886;15.604;2023-01-30T05:55:41;99847.77;;;-0.54;80.76
40794;BME280;26502;51.886;15.604;2023-01-30T06:00:48;99848.63;;;-0.50;80.97
40794;BME280;26502;51.886;15.604;2023-01-30T06:05:56;99839.73;;;-0.43;81.33
40794;BME280;26502;51.886;15.604;2023-01-30T06:11:05;99827.69;;;-0.37;81.47
40794;BME280;26502;51.886;15.604;2023-01-30T06:16:14;99830.47;;;-0.32;81.50
40794;BME280;26502;51.886;15.604;2023-01-30T06:21:22;99841.10;;;-0.25;81.43
40794;BME280;26502;51.886;15.604;2023-01-30T06:26:30;99819.98;;;-0.18;81.71
40794;BME280;26502;51.886;15.604;2023-01-30T06:31:38;99811.06;;;-0.12;81.73
40794;BME280;26502;51.886;15.604;2023-01-30T06:36:46;99801.80;;;-0.07;81.95
40794;BME280;26502;51.886;15.604;2023-01-30T06:41:55;99802.45;;;0.03;82.18
40794;BME280;26502;51.886;15.604;2023-01-30T06:47:03;99800.49;;;0.12;82.26
40794;BME280;26502;51.886;15.604;2023-01-30T06:52:10;99790.17;;;0.15;81.99
40794;BME280;26502;51.886;15.604;2023-01-30T06:57:18;99791.56;;;0.21;82.28
40794;BME280;26502;51.886;15.604;2023-01-30T07:02:26;99775.14;;;0.21;82.44
40794;BME280;26502;51.886;15.604;2023-01-30T07:07:35;99761.89;;;0.19;82.89
40794;BME280;26502;51.886;15.604;2023-01-30T07:12:43;99755.80;;;0.12;83.10
40794;BME280;26502;51.886;15.604;2023-01-30T07:17:50;99760.55;;;0.06;83.57
40794;BME280;26502;51.886;15.604;2023-01-30T07:22:58;99755.52;;;0.02;84.20
40794;BME280;26502;51.886;15.604;2023-01-30T07:28:07;99749.92;;;-0.03;84.72
40794;BME280;26502;51.886;15.604;2023-01-30T07:33:15;99760.05;;;-0.06;84.94
40794;BME280;26502;51.886;15.604;2023-01-30T07:38:23;99752.19;;;-0.02;85.20
40794;BME280;26502;51.886;15.604;2023-01-30T07:43:30;99746.59;;;0.04;85.52
40794;BME280;26502;51.886;15.604;2023-01-30T07:48:38;99740.29;;;0.07;85.90
40794;BME280;26502;51.886;15.604;2023-01-30T07:53:45;99738.02;;;0.06;85.74
40794;BME280;26502;51.886;15.604;2023-01-30T07:58:55;99740.97;;;0.11;86.17
40794;BME280;26502;51.886;15.604;2023-01-30T08:04:03;99743.22;;;0.16;86.46
40794;BME280;26502;51.886;15.604;2023-01-30T08:09:11;99744.57;;;0.24;86.68
40794;BME280;26502;51.886;15.604;2023-01-30T08:14:19;99733.95;;;0.18;86.67
40794;BME280;26502;51.886;15.604;2023-01-30T08:19:27;99726.45;;;0.17;86.64
40794;BME280;26502;51.886;15.604;2023-01-30T08:24:35;99722.26;;;0.17;87.02
40794;BME280;26502;51.886;15.604;2023-01-30T08:29:42;99718.23;;;0.17;86.96
40794;BME280;26502;51.886;15.604;2023-01-30T08:34:50;99719.08;;;0.23;87.18
40794;BME280;26502;51.886;15.604;2023-01-30T08:39:58;99709.09;;;0.29;87.32
40794;BME280;26502;51.886;15.604;2023-01-30T08:45:07;99706.77;;;0.35;87.32
40794;BME280;26502;51.886;15.604;2023-01-30T08:50:15;99696.77;;;0.42;87.46
40794;BME280;26502;51.886;15.604;2023-01-30T08:55:22;99687.81;;;0.49;87.61
40794;BME280;26502;51.886;15.604;2023-01-30T09:00:31;99676.59;;;0.55;87.82
40794;BME280;26502;51.886;15.604;2023-01-30T09:05:39;99689.14;;;0.61;87.88
40794;BME280;26502;51.886;15.604;2023-01-30T09:10:47;99686.45;;;0.68;87.92
40794;BME280;26502;51.886;15.604;2023-01-30T09:15:55;99687.13;;;0.71;87.79
40794;BME280;26502;51.886;15.604;2023-01-30T09:21:07;99683.95;;;0.76;88.04
40794;BME280;26502;51.886;15.604;2023-01-30T09:26:15;99683.00;;;0.83;88.15
40794;BME280;26502;51.886;15.604;2023-01-30T09:31:23;99673.87;;;0.87;88.06
40794;BME280;26502;51.886;15.604;2023-01-30T09:36:31;99682.36;;;0.95;88.12
40794;BME280;26502;51.886;15.604;2023-01-30T09:41:58;99678.52;;;0.96;88.07
40794;BME280;26502;51.886;15.604;2023-01-30T09:47:13;99679.05;;;0.94;87.72
40794;BME280;26502;51.886;15.604;2023-01-30T09:52:30;99674.64;;;0.99;87.81
40794;BME280;26502;51.886;15.604;2023-01-30T09:57:44;99670.59;;;1.02;87.98
40794;BME280;26502;51.886;15.604;2023-01-30T10:02:58;99662.34;;;1.07;88.00
40794;BME280;26502;51.886;15.604;2023-01-30T10:08:23;99645.52;;;1.10;88.01
40794;BME280;26502;51.886;15.604;2023-01-30T10:13:47;99646.90;;;1.10;88.27
40794;BME280;26502;51.886;15.604;2023-01-30T10:19:16;99638.14;;;1.13;88.40
40794;BME280;26502;51.886;15.604;2023-01-30T10:24:39;99628.58;;;1.24;88.32
40794;BME280;26502;51.886;15.604;2023-01-30T10:29:54;99627.23;;;1.34;88.41
40794;BME280;26502;51.886;15.604;2023-01-30T10:35:08;99621.55;;;1.41;88.55
40794;BME280;26502;51.886;15.604;2023-01-30T10:40:23;99626.40;;;1.44;88.72
40794;BME280;26502;51.886;15.604;2023-01-30T10:45:40;99622.70;;;1.47;88.72
40794;BME280;26502;51.886;15.604;2023-01-30T10:50:54;99622.34;;;1.49;88.43
40794;BME280;26502;51.886;15.604;2023-01-30T10:56:07;99621.09;;;1.51;88.40
40794;BME280;26502;51.886;15.604;2023-01-30T11:01:23;99612.28;;;1.54;88.42
40794;BME280;26502;51.886;15.604;2023-01-30T11:06:32;99602.24;;;1.60;88.81
40794;BME280;26502;51.886;15.604;2023-01-30T11:11:48;99602.79;;;1.58;88.49
40794;BME280;26502;51.886;15.604;2023-01-30T11:16:58;99597.17;;;1.60;88.74
40794;BME280;26502;51.886;15.604;2023-01-30T11:22:09;99598.65;;;1.67;89.06
40794;BME280;26502;51.886;15.604;2023-01-30T11:27:23;99591.23;;;1.73;88.83
40794;BME280;26502;51.886;15.604;2023-01-30T11:32:31;99589.44;;;1.87;88.92
40794;BME280;26502;51.886;15.604;2023-01-30T11:37:40;99584.85;;;1.90;88.92
40794;BME280;26502;51.886;15.604;2023-01-30T11:42:50;99583.10;;;2.01;89.12
40794;BME280;26502;51.886;15.604;2023-01-30T11:48:03;99577.84;;;2.13;88.94
40794;BME280;26502;51.886;15.604;2023-01-30T11:53:23;99574.45;;;2.29;88.96
40794;BME280;26502;51.886;15.604;2023-01-30T11:58:37;99573.27;;;2.36;89.12
40794;BME280;26502;51.886;15.604;2023-01-30T12:03:49;99565.73;;;2.36;89.02
40794;BME280;26502;51.886;15.604;2023-01-30T12:08:59;99561.65;;;2.40;88.85
40794;BME280;26502;51.886;15.604;2023-01-30T12:14:18;99557.33;;;2.36;88.62
40794;BME280;26502;51.886;15.604;2023-01-30T12:19:38;99551.70;;;2.47;88.75
40794;BME280;26502;51.886;15.604;2023-01-30T12:24:51;99536.88;;;2.72;89.11
40794;BME280;26502;51.886;15.604;2023-01-30T12:30:09;99531.96;;;3.00;89.05
40794;BME280;26502;51.886;15.604;2023-01-30T12:35:27;99530.55;;;3.09;88.71
40794;BME280;26502;51.886;15.604;2023-01-30T12:40:44;99516.36;;;3.17;88.43
40794;BME280;26502;51.886;15.604;2023-01-30T12:46:04;99517.47;;;3.14;87.62
40794;BME280;26502;51.886;15.604;2023-01-30T12:51:25;99506.58;;;3.06;87.49
40794;BME280;26502;51.886;15.604;2023-01-30T12:56:47;99506.85;;;3.02;87.40
40794;BME280;26502;51.886;15.604;2023-01-30T13:02:17;99506.72;;;2.91;87.08
40794;BME280;26502;51.886;15.604;2023-01-30T13:07:35;99498.17;;;2.88;87.20
40794;BME280;26502;51.886;15.604;2023-01-30T13:12:52;99498.34;;;2.88;87.24
40794;BME280;26502;51.886;15.604;2023-01-30T13:18:12;99493.52;;;2.93;87.10
40794;BME280;26502;51.886;15.604;2023-01-30T13:23:23;99490.83;;;2.96;87.03
40794;BME280;26502;51.886;15.604;2023-01-30T13:28:36;99495.11;;;3.01;87.13
40794;BME280;26502;51.886;15.604;2023-01-30T13:33:48;99491.73;;;3.03;87.13
40794;BME280;26502;51.886;15.604;2023-01-30T13:39:01;99481.08;;;3.01;86.94
40794;BME280;26502;51.886;15.604;2023-01-30T13:44:19;99480.95;;;2.99;86.68
40794;BME280;26502;51.886;15.604;2023-01-30T13:49:35;99462.52;;;3.00;86.61
40794;BME280;26502;51.886;15.604;2023-01-30T13:54:56;99449.15;;;3.09;86.93
40794;BME280;26502;51.886;15.604;2023-01-30T14:00:26;99446.16;;;3.34;86.72
40794;BME280;26502;51.886;15.604;2023-01-30T14:11:43;99453.93;;;3.39;85.83
40794;BME280;26502;51.886;15.604;2023-01-30T14:16:55;99450.36;;;3.42;85.56
40794;BME280;26502;51.886;15.604;2023-01-30T14:22:16;99439.45;;;3.43;85.30
40794;BME280;26502;51.886;15.604;2023-01-30T14:27:26;99450.42;;;3.47;84.90
40794;BME280;26502;51.886;15.604;2023-01-30T14:32:53;99454.75;;;3.57;84.90
40794;BME280;26502;51.886;15.604;2023-01-30T14:38:17;99443.13;;;3.73;85.19
40794;BME280;26502;51.886;15.604;2023-01-30T14:43:36;99447.19;;;3.87;84.15
40794;BME280;26502;51.886;15.604;2023-01-30T14:48:50;99459.66;;;3.80;83.94
40794;BME280;26502;51.886;15.604;2023-01-30T14:54:00;99470.88;;;3.66;83.58
40794;BME280;26502;51.886;15.604;2023-01-30T14:59:17;99469.20;;;3.55;83.69
40794;BME280;26502;51.886;15.604;2023-01-30T15:04:28;99470.33;;;3.51;83.25
40794;BME280;26502;51.886;15.604;2023-01-30T15:09:37;99466.13;;;3.52;82.80
40794;BME280;26502;51.886;15.604;2023-01-30T15:14:56;99474.04;;;3.51;82.70
40794;BME280;26502;51.886;15.604;2023-01-30T15:20:13;99466.98;;;3.52;82.87
40794;BME280;26502;51.886;15.604;2023-01-30T15:25:31;99459.92;;;3.54;81.89
40794;BME280;26502;51.886;15.604;2023-01-30T15:30:47;99468.27;;;3.49;82.09
40794;BME280;26502;51.886;15.604;2023-01-30T15:36:22;99469.40;;;3.46;81.80
40794;BME280;26502;51.886;15.604;2023-01-30T15:41:31;99468.65;;;3.49;81.89
40794;BME280;26502;51.886;15.604;2023-01-30T15:46:47;99466.55;;;3.48;81.80
40794;BME280;26502;51.886;15.604;2023-01-30T15:52:01;99470.19;;;3.42;81.56
40794;BME280;26502;51.886;15.604;2023-01-30T15:57:19;99477.79;;;3.32;82.46
40794;BME280;26502;51.886;15.604;2023-01-30T16:02:29;99478.86;;;3.15;83.01
40794;BME280;26502;51.886;15.604;2023-01-30T16:07:38;99493.55;;;3.00;83.18
40794;BME280;26502;51.886;15.604;2023-01-30T16:12:47;99507.24;;;2.91;83.79
40794;BME280;26502;51.886;15.604;2023-01-30T16:18:01;99520.84;;;2.86;83.95
40794;BME280;26502;51.886;15.604;2023-01-30T16:23:21;99525.22;;;2.86;84.03
40794;BME280;26502;51.886;15.604;2023-01-30T16:28:32;99536.08;;;2.87;84.76
40794;BME280;26502;51.886;15.604;2023-01-30T16:33:40;99548.52;;;2.87;85.00
40794;BME280;26502;51.886;15.604;2023-01-30T16:38:48;99555.73;;;2.96;85.08
40794;BME280;26502;51.886;15.604;2023-01-30T16:44:10;99574.85;;;2.95;84.99
40794;BME280;26502;51.886;15.604;2023-01-30T16:49:27;99588.41;;;2.92;85.03
40794;BME280;26502;51.886;15.604;2023-01-30T16:54:47;99599.14;;;2.90;84.88
40794;BME280;26502;51.886;15.604;2023-01-30T16:59:56;99611.66;;;2.87;85.12
40794;BME280;26502;51.886;15.604;2023-01-30T17:05:22;99614.89;;;2.83;85.17
40794;BME280;26502;51.886;15.604;2023-01-30T17:11:04;99633.86;;;2.80;84.96
40794;BME280;26502;51.886;15.604;2023-01-30T17:16:33;99650.25;;;2.76;85.04
40794;BME280;26502;51.886;15.604;2023-01-30T17:21:47;99659.01;;;2.66;85.02
40794;BME280;26502;51.886;15.604;2023-01-30T17:26:57;99673.14;;;2.59;84.93
40794;BME280;26502;51.886;15.604;2023-01-30T17:32:10;99673.67;;;2.59;84.99
40794;BME280;26502;51.886;15.604;2023-01-30T17:37:24;99680.98;;;2.62;84.77
40794;BME280;26502;51.886;15.604;2023-01-30T17:42:33;99685.52;;;2.63;84.90
40794;BME280;26502;51.886;15.604;2023-01-30T17:47:41;99694.64;;;2.63;84.84
40794;BME280;26502;51.886;15.604;2023-01-30T17:52:54;99704.08;;;2.64;84.97
40794;BME280;26502;51.886;15.604;2023-01-30T17:58:04;99713.74;;;2.64;84.86
40794;BME280;26502;51.886;15.604;2023-01-30T18:03:12;99719.00;;;2.63;84.72
40794;BME280;26502;51.886;15.604;2023-01-30T18:08:21;99717.24;;;2.63;84.81
40794;BME280;26502;51.886;15.604;2023-01-30T18:13:34;99720.20;;;2.65;84.89
40794;BME280;26502;51.886;15.604;2023-01-30T18:18:45;99732.30;;;2.65;84.83
40794;BME280;26502;51.886;15.604;2023-01-30T18:23:55;99738.63;;;2.64;84.82
40794;BME280;26502;51.886;15.604;2023-01-30T18:29:06;99749.52;;;2.63;84.81
40794;BME280;26502;51.886;15.604;2023-01-30T18:34:21;99747.73;;;2.65;85.08
40794;BME280;26502;51.886;15.604;2023-01-30T18:39:30;99751.54;;;2.68;84.57
40794;BME280;26502;51.886;15.604;2023-01-30T18:44:43;99755.12;;;2.64;85.07
40794;BME280;26502;51.886;15.604;2023-01-30T18:49:53;99761.14;;;2.59;84.98
40794;BME280;26502;51.886;15.604;2023-01-30T18:55:01;99770.21;;;2.49;85.05
40794;BME280;26502;51.886;15.604;2023-01-30T19:00:13;99775.46;;;2.37;85.17
40794;BME280;26502;51.886;15.604;2023-01-30T19:05:25;99782.89;;;2.32;85.36
40794;BME280;26502;51.886;15.604;2023-01-30T19:10:37;99800.73;;;2.33;85.64
40794;BME280;26502;51.886;15.604;2023-01-30T19:15:50;99803.60;;;2.29;85.99
40794;BME280;26502;51.886;15.604;2023-01-30T19:21:02;99804.48;;;2.29;86.15
40794;BME280;26502;51.886;15.604;2023-01-30T19:26:11;99808.11;;;2.33;85.95
40794;BME280;26502;51.886;15.604;2023-01-30T19:31:25;99813.11;;;2.39;86.54
40794;BME280;26502;51.886;15.604;2023-01-30T19:36:38;99814.27;;;2.44;86.60
40794;BME280;26502;51.886;15.604;2023-01-30T19:41:48;99809.52;;;2.47;86.73
40794;BME280;26502;51.886;15.604;2023-01-30T19:46:59;99816.48;;;2.49;86.93
40794;BME280;26502;51.886;15.604;2023-01-30T19:52:13;99834.73;;;2.48;86.81
40794;BME280;26502;51.886;15.604;2023-01-30T19:57:22;99843.76;;;2.54;86.83
40794;BME280;26502;51.886;15.604;2023-01-30T20:02:35;99851.93;;;2.59;86.79
40794;BME280;26502;51.886;15.604;2023-01-30T20:07:46;99856.15;;;2.59;87.10
40794;BME280;26502;51.886;15.604;2023-01-30T20:13:01;99869.38;;;2.65;86.89
40794;BME280;26502;51.886;15.604;2023-01-30T20:18:14;99873.19;;;2.69;86.99
40794;BME280;26502;51.886;15.604;2023-01-30T20:23:27;99887.73;;;2.71;87.17
40794;BME280;26502;51.886;15.604;2023-01-30T20:28:37;99903.10;;;2.74;86.79
40794;BME280;26502;51.886;15.604;2023-01-30T20:33:50;99912.38;;;2.76;87.21
40794;BME280;26502;51.886;15.604;2023-01-30T20:39:02;99913.50;;;2.71;86.96
40794;BME280;26502;51.886;15.604;2023-01-30T20:44:16;99917.74;;;2.68;86.48
40794;BME280;26502;51.886;15.604;2023-01-30T20:49:28;99915.82;;;2.67;86.52
40794;BME280;26502;51.886;15.604;2023-01-30T20:54:53;99925.20;;;2.73;86.46
40794;BME280;26502;51.886;15.604;2023-01-30T21:00:04;99930.93;;;2.79;86.17
40794;BME280;26502;51.886;15.604;2023-01-30T21:05:18;99947.76;;;2.79;86.16
40794;BME280;26502;51.886;15.604;2023-01-30T21:10:27;99964.02;;;2.83;85.86
40794;BME280;26502;51.886;15.604;2023-01-30T21:15:36;99968.36;;;2.86;86.10
40794;BME280;26502;51.886;15.604;2023-01-30T21:20:50;99978.85;;;2.90;86.07
40794;BME280;26502;51.886;15.604;2023-01-30T21:26:04;99985.48;;;2.94;86.09
40794;BME280;26502;51.886;15.604;2023-01-30T21:31:16;99994.73;;;2.97;85.67
40794;BME280;26502;51.886;15.604;2023-01-30T21:36:25;100008.72;;;2.99;85.85
40794;BME280;26502;51.886;15.604;2023-01-30T21:41:35;100008.57;;;2.97;85.61
40794;BME280;26502;51.886;15.604;2023-01-30T21:47:06;100022.77;;;2.99;85.70
40794;BME280;26502;51.886;15.604;2023-01-30T21:52:16;100023.48;;;2.98;85.35
40794;BME280;26502;51.886;15.604;2023-01-30T21:57:23;100029.48;;;2.95;85.21
40794;BME280;26502;51.886;15.604;2023-01-30T22:02:31;100035.62;;;2.95;85.12
40794;BME280;26502;51.886;15.604;2023-01-30T22:07:39;100036.13;;;2.96;84.79
40794;BME280;26502;51.886;15.604;2023-01-30T22:12:47;100044.17;;;2.97;84.76
40794;BME280;26502;51.886;15.604;2023-01-30T22:17:57;100044.89;;;2.97;84.58
40794;BME280;26502;51.886;15.604;2023-01-30T22:23:04;100055.55;;;3.00;84.36
40794;BME280;26502;51.886;15.604;2023-01-30T22:28:12;100057.45;;;3.01;84.28
40794;BME280;26502;51.886;15.604;2023-01-30T22:33:19;100064.41;;;3.08;84.15
40794;BME280;26502;51.886;15.604;2023-01-30T22:38:27;100075.59;;;3.13;83.77
40794;BME280;26502;51.886;15.604;2023-01-30T22:43:36;100080.49;;;3.13;83.41
40794;BME280;26502;51.886;15.604;2023-01-30T22:48:44;100086.78;;;3.15;83.31
40794;BME280;26502;51.886;15.604;2023-01-30T22:53:52;100089.08;;;3.15;83.16
40794;BME280;26502;51.886;15.604;2023-01-30T22:59:00;100096.77;;;3.17;83.14
40794;BME280;26502;51.886;15.604;2023-01-30T23:04:11;100096.14;;;3.24;82.31
40794;BME280;26502;51.886;15.604;2023-01-30T23:09:21;100099.58;;;3.32;82.21
40794;BME280;26502;51.886;15.604;2023-01-30T23:14:29;100098.77;;;3.39;81.71
40794;BME280;26502;51.886;15.604;2023-01-30T23:19:36;100105.77;;;3.41;81.26
40794;BME280;26502;51.886;15.604;2023-01-30T23:24:44;100111.02;;;3.42;81.08
40794;BME280;26502;51.886;15.604;2023-01-30T23:29:53;100119.08;;;3.44;80.71
40794;BME280;26502;51.886;15.604;2023-01-30T23:35:00;100128.91;;;3.43;80.46
40794;BME280;26502;51.886;15.604;2023-01-30T23:40:11;100136.99;;;3.43;79.84
40794;BME280;26502;51.886;15.604;2023-01-30T23:45:20;100142.09;;;3.42;79.89
40794;BME280;26502;51.886;15.604;2023-01-30T23:50:30;100155.67;;;3.38;79.65
40794;BME280;26502;51.886;15.604;2023-01-30T23:55:38;100159.02;;;3.36;79.13
